createdAt,value
2023-02-11T00:01:08.044Z,6.03
2023-02-11T00:06:13.116Z,6.60
2023-02-11T00:11:18.394Z,6.20
2023-02-11T00:16:22.536Z,6.53
2023-02-11T00:21:28.421Z,5.22
2023-02-11T00:26:34.453Z,5.90
2023-02-11T00:31:38.425Z,5.50
2023-02-11T00:36:43.838Z,5.60
2023-02-11T00:41:47.656Z,5.78
2023-02-11T00:46:51.592Z,5.28
2023-02-11T00:51:56.766Z,5.20
2023-02-11T00:57:00.544Z,5.07
2023-02-11T01:02:04.671Z,6.40
2023-02-11T01:07:09.911Z,5.60
2023-02-11T01:12:13.894Z,5.55
2023-02-11T01:17:17.796Z,5.40
2023-02-11T01:22:22.959Z,5.62
2023-02-11T01:27:26.732Z,5.95
2023-02-11T01:32:30.476Z,6.15
2023-02-11T01:37:36.145Z,6.65
2023-02-11T01:42:40.071Z,6.15
2023-02-11T01:47:43.871Z,6.00
2023-02-11T01:52:50.041Z,5.37
2023-02-11T01:57:59.764Z,6.03
2023-02-11T02:03:07.238Z,6.53
2023-02-11T02:08:18.815Z,7.13
2023-02-11T02:13:23.086Z,6.78
2023-02-11T02:18:40.592Z,7.32
2023-02-11T02:24:00.864Z,6.75
2023-02-11T02:29:38.910Z,7.15
2023-02-11T02:34:51.464Z,8.50
2023-02-11T02:40:00.819Z,7.72
2023-02-11T02:45:04.866Z,8.05
2023-02-11T02:50:12.335Z,8.20
2023-02-11T02:55:25.846Z,8.63
2023-02-11T03:00:38.556Z,9.25
2023-02-11T03:05:53.466Z,8.82
2023-02-11T03:10:58.533Z,9.82
2023-02-11T03:16:09.574Z,8.43
2023-02-11T03:21:16.676Z,9.60
2023-02-11T03:26:26.765Z,9.13
2023-02-11T03:31:37.626Z,9.15
2023-02-11T03:36:47.236Z,11.80
2023-02-11T03:41:52.533Z,9.30
2023-02-11T03:46:57.057Z,10.45
2023-02-11T03:52:05.674Z,8.95
2023-02-11T03:57:09.432Z,10.85
2023-02-11T04:02:13.172Z,10.65
2023-02-11T04:07:18.542Z,10.13
2023-02-11T04:12:22.449Z,10.70
2023-02-11T04:17:26.266Z,10.75
2023-02-11T04:22:31.717Z,10.75
2023-02-11T04:27:35.421Z,12.63
2023-02-11T04:32:39.279Z,11.27
2023-02-11T04:37:44.347Z,12.10
2023-02-11T04:42:48.204Z,12.23
2023-02-11T04:47:51.955Z,13.05
2023-02-11T04:52:57.045Z,11.68
2023-02-11T04:58:00.832Z,13.18
2023-02-11T05:03:04.697Z,11.82
2023-02-11T05:08:10.971Z,10.98
2023-02-11T05:13:14.706Z,12.27
2023-02-11T05:18:18.450Z,10.98
2023-02-11T05:23:23.573Z,12.77
2023-02-11T05:28:27.359Z,12.13
2023-02-11T05:33:31.109Z,13.77
2023-02-11T05:38:36.702Z,12.88
2023-02-11T05:43:40.424Z,14.87
2023-02-11T05:48:44.414Z,14.45
2023-02-11T05:53:49.498Z,15.77
2023-02-11T05:58:53.277Z,16.12
2023-02-11T06:03:57.079Z,16.23
2023-02-11T06:09:02.186Z,16.25
2023-02-11T06:14:07.103Z,17.17
2023-02-11T06:19:11.198Z,17.42
2023-02-11T06:24:18.907Z,20.02
2023-02-11T06:29:28.326Z,21.12
2023-02-11T06:34:32.048Z,23.55
2023-02-11T06:39:37.173Z,22.37
2023-02-11T06:44:41.035Z,23.25
2023-02-11T06:49:44.843Z,23.05
2023-02-11T06:54:49.850Z,23.17
2023-02-11T06:59:53.613Z,23.92
2023-02-11T07:04:57.382Z,24.27
2023-02-11T07:10:03.198Z,25.67
2023-02-11T07:15:07.876Z,27.60
2023-02-11T07:20:14.710Z,27.02
2023-02-11T07:25:19.872Z,29.23
2023-02-11T07:30:23.626Z,30.80
2023-02-11T07:35:27.473Z,30.65
2023-02-11T07:40:32.671Z,31.67
2023-02-11T07:45:39.799Z,34.05
2023-02-11T07:50:43.572Z,33.28
2023-02-11T07:55:48.748Z,32.95
2023-02-11T08:00:52.649Z,32.78
2023-02-11T08:05:56.450Z,33.40
2023-02-11T08:11:07.510Z,36.40
2023-02-11T08:16:20.344Z,33.95
2023-02-11T08:21:25.285Z,32.60
2023-02-11T08:26:34.677Z,34.55
2023-02-11T08:31:42.247Z,36.47
2023-02-11T08:36:48.000Z,35.00
2023-02-11T08:41:56.511Z,36.40
2023-02-11T08:47:00.290Z,33.90
2023-02-11T08:52:06.302Z,37.25
2023-02-11T08:57:11.373Z,35.08
2023-02-11T09:02:17.240Z,33.60
2023-02-11T09:07:21.044Z,34.63
2023-02-11T09:12:26.230Z,35.70
2023-02-11T09:17:30.039Z,34.83
2023-02-11T09:22:33.805Z,33.97
2023-02-11T09:27:38.884Z,33.88
2023-02-11T09:32:42.707Z,34.75
2023-02-11T09:37:46.464Z,34.90
2023-02-11T09:42:56.150Z,35.03
2023-02-11T09:48:06.437Z,35.38
2023-02-11T09:58:23.232Z,33.90
2023-02-11T10:03:45.955Z,33.67
2023-02-11T10:09:00.161Z,31.98
2023-02-11T10:14:22.295Z,33.47
2023-02-11T10:19:39.655Z,32.92
2023-02-11T10:24:52.219Z,32.13
2023-02-11T10:30:03.151Z,33.47
2023-02-11T10:35:16.241Z,33.08
2023-02-11T10:40:22.378Z,34.60
2023-02-11T10:45:33.313Z,31.70
2023-02-11T10:50:37.350Z,32.28
2023-02-11T10:55:51.383Z,32.10
2023-02-11T11:00:59.702Z,30.88
2023-02-11T11:11:10.970Z,31.12
2023-02-11T11:16:25.015Z,29.75
2023-02-11T11:21:34.790Z,32.97
2023-02-11T11:26:44.356Z,30.25
2023-02-11T11:31:53.231Z,30.83
2023-02-11T11:36:58.858Z,29.77
2023-02-11T11:42:05.324Z,28.75
2023-02-11T11:47:33.008Z,27.70
2023-02-11T11:52:45.468Z,28.33
2023-02-11T11:57:50.497Z,29.73
2023-02-11T12:03:34.468Z,28.58
2023-02-11T12:08:52.348Z,28.10
2023-02-11T12:14:09.043Z,29.52
2023-02-11T12:19:35.725Z,26.17
2023-02-11T12:24:57.302Z,28.30
2023-02-11T12:30:14.481Z,32.97
2023-02-11T12:35:29.485Z,33.53
2023-02-11T12:40:43.977Z,31.27
2023-02-11T12:46:02.412Z,31.15
2023-02-11T12:51:17.975Z,30.15
2023-02-11T12:56:27.890Z,28.33
2023-02-11T13:01:35.403Z,28.27
2023-02-11T13:06:45.900Z,28.60
2023-02-11T13:11:56.529Z,27.60
2023-02-11T13:17:00.795Z,25.62
2023-02-11T13:22:14.696Z,26.52
2023-02-11T13:27:39.275Z,25.73
2023-02-11T13:33:06.606Z,27.02
2023-02-11T13:38:22.157Z,24.67
2023-02-11T13:43:28.859Z,25.70
2023-02-11T13:48:36.192Z,24.98
2023-02-11T13:53:50.785Z,23.87
2023-02-11T13:58:54.731Z,23.90
2023-02-11T14:04:50.423Z,23.90
2023-02-11T14:09:57.058Z,23.10
2023-02-11T14:15:26.464Z,23.75
2023-02-11T14:20:40.441Z,23.65
2023-02-11T14:25:54.626Z,22.58
2023-02-11T14:31:08.595Z,23.27
2023-02-11T14:36:24.613Z,21.45
2023-02-11T14:41:33.026Z,22.73
2023-02-11T14:46:37.145Z,22.00
2023-02-11T14:51:42.033Z,22.25
2023-02-11T14:56:47.986Z,24.90
2023-02-11T15:01:54.366Z,20.30
2023-02-11T15:07:01.435Z,22.35
2023-02-11T15:12:17.792Z,19.33
2023-02-11T15:17:25.738Z,17.92
2023-02-11T15:22:33.875Z,16.83
2023-02-11T15:27:43.711Z,17.77
2023-02-11T15:32:47.494Z,17.12
2023-02-11T15:37:51.363Z,18.25
2023-02-11T15:42:59.463Z,16.40
2023-02-11T15:48:09.209Z,15.68
2023-02-11T15:53:25.664Z,15.77
2023-02-11T15:58:32.111Z,15.00
2023-02-11T16:03:36.096Z,16.40
2023-02-11T16:08:41.560Z,15.10
2023-02-11T16:13:48.267Z,16.62
2023-02-11T16:19:04.281Z,16.52
2023-02-11T16:24:19.090Z,15.20
2023-02-11T16:29:28.111Z,15.32
2023-02-11T16:34:31.929Z,14.60
2023-02-11T16:39:35.822Z,15.77
2023-02-11T16:44:40.983Z,14.57
2023-02-11T16:49:44.814Z,13.62
2023-02-11T16:54:48.588Z,14.30
2023-02-11T16:59:54.000Z,15.55
2023-02-11T17:05:00.648Z,13.52
2023-02-11T17:10:04.607Z,13.32
2023-02-11T17:15:10.910Z,13.80
2023-02-11T17:20:16.413Z,15.65
2023-02-11T17:25:20.444Z,13.88
2023-02-11T17:30:25.549Z,13.68
2023-02-11T17:35:29.443Z,14.80
2023-02-11T17:40:33.216Z,12.90
2023-02-11T17:45:42.404Z,13.25
2023-02-11T17:50:46.517Z,14.77
2023-02-11T17:55:50.581Z,12.48
2023-02-11T18:00:59.224Z,13.68
2023-02-11T18:06:04.260Z,13.73
2023-02-11T18:11:10.892Z,17.00
2023-02-11T18:16:17.272Z,17.77
2023-02-11T18:21:22.781Z,25.55
2023-02-11T18:26:28.152Z,19.17
2023-02-11T18:31:35.246Z,15.95
2023-02-11T18:36:39.550Z,14.00
2023-02-11T18:41:43.657Z,15.85
2023-02-11T18:46:48.796Z,12.27
2023-02-11T18:51:52.744Z,13.23
2023-02-11T18:56:56.513Z,14.13
2023-02-11T19:02:01.623Z,13.10
2023-02-11T19:07:05.373Z,12.82
2023-02-11T19:12:09.456Z,13.02
2023-02-11T19:17:14.499Z,14.80
2023-02-11T19:22:19.007Z,17.92
2023-02-11T19:27:22.730Z,14.00
2023-02-11T19:32:28.118Z,13.75
2023-02-11T19:37:31.798Z,11.98
2023-02-11T19:42:35.554Z,12.70
2023-02-11T19:47:40.603Z,11.30
2023-02-11T19:52:44.306Z,18.87
2023-02-11T19:57:48.035Z,15.15
2023-02-11T20:02:53.262Z,12.18
2023-02-11T20:07:59.100Z,13.10
2023-02-11T20:13:03.846Z,17.10
2023-02-11T20:18:09.123Z,14.45
2023-02-11T20:23:12.862Z,12.55
2023-02-11T20:28:18.708Z,12.10
2023-02-11T20:33:23.866Z,12.50
2023-02-11T20:38:27.910Z,13.13
2023-02-11T20:43:32.036Z,13.18
2023-02-11T20:48:37.223Z,11.43
2023-02-11T20:53:43.957Z,9.93
2023-02-11T20:58:48.227Z,8.27
2023-02-11T21:03:56.137Z,8.27
2023-02-11T21:09:00.152Z,12.27
2023-02-11T21:14:04.469Z,9.43
2023-02-11T21:19:09.709Z,15.85
2023-02-11T21:24:13.776Z,12.88
2023-02-11T21:29:17.611Z,9.35
2023-02-11T21:34:22.780Z,7.65
2023-02-11T21:39:26.899Z,13.32
2023-02-11T21:44:32.042Z,10.45
2023-02-11T21:49:37.183Z,10.40
2023-02-11T21:54:40.948Z,8.68
2023-02-11T21:59:44.754Z,9.27
2023-02-11T22:04:49.894Z,9.05
2023-02-11T22:09:54.778Z,8.73
2023-02-11T22:14:58.575Z,8.73
2023-02-11T22:20:03.913Z,9.07
2023-02-11T22:25:08.443Z,8.63
2023-02-11T22:30:13.197Z,8.68
2023-02-11T22:35:18.492Z,8.88
2023-02-11T22:40:23.383Z,8.05
2023-02-11T22:45:27.153Z,8.45
2023-02-11T22:50:32.297Z,8.18
2023-02-11T22:55:37.871Z,8.18
2023-02-11T23:00:43.134Z,8.18
2023-02-11T23:05:48.282Z,8.60
2023-02-11T23:10:52.034Z,8.35
2023-02-11T23:15:56.160Z,8.10
2023-02-11T23:21:06.732Z,8.15
2023-02-11T23:26:11.505Z,7.68
2023-02-11T23:31:20.073Z,8.57
2023-02-11T23:36:25.254Z,7.85
2023-02-11T23:41:30.098Z,7.75
2023-02-11T23:46:33.898Z,9.15
2023-02-11T23:51:39.026Z,9.07
2023-02-11T23:56:43.506Z,8.23
